Kuantan Airport


Codes: WMKD/KUA
Name: Kuantan Airport
City: Kuantan
Country: Malaysia
Elevation: 58 ft.
Wikipedia:

Photos at Kuantan Airport


   Photos courtesy of SpottingLog. You can add your own sightings and photos by signing up for a free trial today.



No photos found.

Weather at Kuantan Airport


Time (UTC)DescriptionTempratureWindCloud coverageVisibilityPressureHumidity
21-Jun-2024 15:00Moderate Rain25°C2 mph, N47%10000m1009hPa88%
21-Jun-2024 18:00Light Rain24°C2 mph, W73%10000m1009hPa94%
21-Jun-2024 21:00Overcast Clouds23°C2 mph, SW100%10000m1008hPa99%
22-Jun-2024 00:00Overcast Clouds23°C4 mph, SW100%10000m1009hPa98%
22-Jun-2024 03:00Light Rain25°C7 mph, S100%10000m1011hPa92%
22-Jun-2024 06:00Light Rain24°C7 mph, SW100%10000m1009hPa92%
22-Jun-2024 09:00Light Rain23°C2 mph, SW100%10000m1008hPa95%
22-Jun-2024 12:00Light Rain22°C2 mph, W100%10000m1010hPa97%
22-Jun-2024 15:00Overcast Clouds22°C2 mph, SW100%10000m1011hPa95%
22-Jun-2024 18:00Overcast Clouds22°C2 mph, SW100%10000m1009hPa96%
22-Jun-2024 21:00Overcast Clouds22°C4 mph, W100%10000m1008hPa96%
23-Jun-2024 00:00Overcast Clouds23°C2 mph, SW100%10000m1009hPa95%
23-Jun-2024 03:00Overcast Clouds28°C7 mph, SW91%10000m1010hPa71%
23-Jun-2024 06:00Overcast Clouds31°C7 mph, S96%10000m1008hPa58%
23-Jun-2024 09:00Overcast Clouds29°C2 mph, SE100%10000m1007hPa76%
23-Jun-2024 12:00Overcast Clouds25°C2 mph, SE100%10000m1008hPa85%
23-Jun-2024 15:00Overcast Clouds24°C2 mph, SW100%10000m1010hPa87%
23-Jun-2024 18:00Overcast Clouds23°C2 mph, SW100%10000m1009hPa87%
23-Jun-2024 21:00Overcast Clouds23°C2 mph, SW99%10000m1008hPa89%
24-Jun-2024 00:00Overcast Clouds24°C2 mph, W87%10000m1009hPa87%
24-Jun-2024 03:00Overcast Clouds29°C7 mph, SW97%10000m1010hPa65%
24-Jun-2024 06:00Overcast Clouds32°C7 mph, SW98%10000m1008hPa50%
24-Jun-2024 09:00Light Rain30°C2 mph, SE100%10000m1006hPa71%
24-Jun-2024 12:00Light Rain25°C0 mph, E100%10000m1008hPa91%
24-Jun-2024 15:00Overcast Clouds25°C2 mph, SW99%10000m1010hPa92%
24-Jun-2024 18:00Light Rain24°C2 mph, W100%10000m1008hPa94%
24-Jun-2024 21:00Overcast Clouds23°C2 mph, SW88%10000m1007hPa95%
25-Jun-2024 00:00Overcast Clouds24°C2 mph, W93%10000m1008hPa92%
25-Jun-2024 03:00Overcast Clouds31°C7 mph, SW91%10000m1009hPa63%
25-Jun-2024 06:00Overcast Clouds33°C7 mph, SW95%10000m1006hPa51%
25-Jun-2024 09:00Light Rain28°C2 mph, SE100%10000m1005hPa79%
25-Jun-2024 12:00Light Rain25°C2 mph, SE100%10000m1008hPa91%
25-Jun-2024 15:00Overcast Clouds24°C0 mph, S98%10000m1009hPa93%
25-Jun-2024 18:00Light Rain24°C2 mph, NW99%10000m1008hPa97%
25-Jun-2024 21:00Light Rain24°C2 mph, W100%10000m1007hPa97%
26-Jun-2024 00:00Light Rain25°C2 mph, SW100%10000m1008hPa95%
26-Jun-2024 03:00Overcast Clouds28°C4 mph, SW100%10000m1008hPa81%
26-Jun-2024 06:00Overcast Clouds31°C4 mph, SE100%10000m1005hPa63%
26-Jun-2024 09:00Light Rain30°C4 mph, E95%10000m1004hPa71%
26-Jun-2024 12:00Light Rain25°C2 mph, E87%10000m1007hPa93%